Time;durP1;ratioP1;P1;durP2;ratioP2;P2;SDS_P1;SDS_P2;PMS_P1;PMS_P2;Temp;Humidity;BMP_temperature;BMP_pressure;BME280_temperature;BME280_humidity;BME280_pressure;Samples;Min_cycle;Max_cycle;Signal;HPM_P1;HPM_P2
2021/05/04 00:02:45;;;;;;;;;;;;;;;2.14;69.51;99021.05;2181189;82;20245;-77
2021/05/04 00:05:47;;;;;;;;;;;;;;;2.22;69.38;99025.58;2180951;82;20154;-77
2021/05/04 00:08:49;;;;;;;;;;;;;;;2.25;69.37;99019.48;2168051;81;20150;-78
2021/05/04 00:11:52;;;;;;;;;;;;;;;2.24;69.28;99011.31;2163634;82;20405;-78
2021/05/04 00:14:54;;;;;;;;;;;;;;;2.21;69.35;99008.80;2163476;82;20123;-74
2021/05/04 00:17:56;;;;;;;;;;;;;;;2.21;69.43;99008.38;2163549;82;20261;-78
2021/05/04 00:20:58;;;;;;;;;;;;;;;2.19;69.68;99006.25;2142505;82;20131;-78
2021/05/04 00:24:00;;;;;;;;;;;;;;;2.22;69.40;98995.81;2163599;82;20520;-77
2021/05/04 00:27:02;;;;;;;;;;;;;;;2.25;69.56;98997.48;2163759;82;20229;-78
2021/05/04 00:30:04;;;;;;;;;;;;;;;2.28;69.39;98997.86;2142592;82;20493;-77
2021/05/04 00:33:06;;;;;;;;;;;;;;;2.28;69.32;98997.41;2163600;82;20221;-78
2021/05/04 00:36:08;;;;;;;;;;;;;;;2.23;69.32;98996.69;2142802;82;20500;-78
2021/05/04 00:39:10;;;;;;;;;;;;;;;2.27;69.51;99000.91;2163495;82;20233;-78
2021/05/04 00:42:12;;;;;;;;;;;;;;;2.28;69.57;98995.28;2163433;82;20237;-78
2021/05/04 00:45:14;;;;;;;;;;;;;;;2.13;69.36;98996.51;2163599;82;20230;-77
2021/05/04 00:48:16;;;;;;;;;;;;;;;1.98;69.87;98997.25;2163625;82;20151;-77
2021/05/04 00:51:18;;;;;;;;;;;;;;;1.88;69.84;98995.77;2163733;82;20265;-77
2021/05/04 00:54:20;;;;;;;;;;;;;;;1.84;70.41;98995.42;2163446;82;20138;-78
2021/05/04 00:57:21;;;;;;;;;;;;;;;1.88;70.35;99000.94;2163494;82;20241;-78
2021/05/04 01:00:23;;;;;;;;;;;;;;;1.92;70.35;98996.56;2163500;82;20153;-77
2021/05/04 01:03:25;;;;;;;;;;;;;;;1.95;69.99;98986.13;2163441;82;20445;-78
2021/05/04 01:06:27;;;;;;;;;;;;;;;1.99;69.88;98980.00;2163467;82;20236;-78
2021/05/04 01:09:29;;;;;;;;;;;;;;;1.98;69.83;98982.17;2178486;81;20394;-79
2021/05/04 01:12:31;;;;;;;;;;;;;;;1.93;69.67;98979.70;2181241;82;20146;-78
2021/05/04 01:15:33;;;;;;;;;;;;;;;1.83;69.75;98977.77;2180978;82;20501;-79
2021/05/04 01:18:35;;;;;;;;;;;;;;;1.77;69.84;98979.63;2180915;82;20272;-78
2021/05/04 01:21:37;;;;;;;;;;;;;;;1.72;70.05;98981.91;2180897;82;20236;-78
2021/05/04 01:24:39;;;;;;;;;;;;;;;1.58;70.16;98974.90;2180878;82;20154;-78
2021/05/04 01:27:41;;;;;;;;;;;;;;;1.35;70.32;98978.83;2180883;82;20260;-79
2021/05/04 01:30:43;;;;;;;;;;;;;;;1.21;71.00;98980.39;2180913;82;20134;-79
2021/05/04 01:33:45;;;;;;;;;;;;;;;1.10;71.31;98972.45;2180976;82;20260;-78
2021/05/04 01:36:47;;;;;;;;;;;;;;;1.15;71.78;98967.61;2181147;82;20150;-79
2021/05/04 01:39:49;;;;;;;;;;;;;;;1.25;71.19;98966.11;2180948;82;20508;-78
2021/05/04 01:42:52;;;;;;;;;;;;;;;1.23;71.31;98958.39;2180905;82;20142;-78
2021/05/04 01:45:53;;;;;;;;;;;;;;;1.25;71.40;98951.90;2181026;82;20221;-75
2021/05/04 01:48:56;;;;;;;;;;;;;;;1.20;71.60;98951.55;2180908;82;20496;-78
2021/05/04 01:51:58;;;;;;;;;;;;;;;1.23;71.46;98945.92;2180883;82;20229;-79
2021/05/04 01:55:00;;;;;;;;;;;;;;;1.17;71.81;98940.44;2153176;82;20226;-76
2021/05/04 01:58:02;;;;;;;;;;;;;;;1.15;70.95;98937.89;2181268;82;20225;-78
2021/05/04 02:01:04;;;;;;;;;;;;;;;1.10;71.40;98937.58;2180943;82;20150;-76
2021/05/04 02:04:06;;;;;;;;;;;;;;;1.09;71.29;98939.74;2181130;82;20232;-78
2021/05/04 02:07:08;;;;;;;;;;;;;;;1.10;71.73;98940.16;2180947;82;20337;-78
2021/05/04 02:10:11;;;;;;;;;;;;;;;1.17;71.58;98933.98;2181109;82;20273;-79
2021/05/04 02:13:13;;;;;;;;;;;;;;;1.09;71.30;98929.41;2181070;82;20177;-72
2021/05/04 02:16:15;;;;;;;;;;;;;;;1.02;71.64;98927.38;2181065;82;20256;-78
2021/05/04 02:19:17;;;;;;;;;;;;;;;0.93;71.56;98929.72;2181084;82;20404;-78
2021/05/04 02:22:19;;;;;;;;;;;;;;;0.76;71.67;98935.23;2181082;82;20228;-77
2021/05/04 02:25:21;;;;;;;;;;;;;;;0.62;72.06;98931.63;2181050;82;20228;-78
2021/05/04 02:28:23;;;;;;;;;;;;;;;0.61;72.30;98927.78;2181047;82;20178;-77
2021/05/04 02:31:25;;;;;;;;;;;;;;;0.62;72.59;98929.03;2181329;82;20240;-78
2021/05/04 02:34:27;;;;;;;;;;;;;;;0.58;72.52;98922.68;2181065;82;20126;-75
2021/05/04 02:37:29;;;;;;;;;;;;;;;0.61;72.67;98924.75;2181037;82;20277;-79
2021/05/04 02:40:31;;;;;;;;;;;;;;;0.60;72.61;98920.45;2153280;82;20228;-79
2021/05/04 02:43:33;;;;;;;;;;;;;;;0.59;72.77;98920.48;2181039;82;20424;-78
2021/05/04 02:46:35;;;;;;;;;;;;;;;0.59;72.70;98916.61;2181018;82;20257;-78
2021/05/04 02:49:37;;;;;;;;;;;;;;;0.56;72.78;98920.13;2181019;82;20436;-79
2021/05/04 02:52:39;;;;;;;;;;;;;;;0.58;73.00;98922.23;2181124;82;20225;-78
2021/05/04 02:55:41;;;;;;;;;;;;;;;0.60;72.84;98913.16;2181121;82;20504;-78
2021/05/04 02:58:43;;;;;;;;;;;;;;;0.64;73.18;98915.65;2181390;82;20122;-78
2021/05/04 03:01:45;;;;;;;;;;;;;;;0.73;73.53;98911.19;2181213;82;20272;-73
2021/05/04 03:04:47;;;;;;;;;;;;;;;0.83;73.69;98911.00;2181017;82;20150;-78
2021/05/04 03:07:50;;;;;;;;;;;;;;;0.97;73.47;98907.27;2180835;81;20764;-78
2021/05/04 03:10:52;;;;;;;;;;;;;;;1.05;73.12;98906.68;2181027;82;20496;-76
2021/05/04 03:13:54;;;;;;;;;;;;;;;1.04;72.92;98903.23;2181266;82;20252;-76
2021/05/04 03:16:56;;;;;;;;;;;;;;;1.09;72.56;98903.13;2180994;82;20228;-72
2021/05/04 03:19:58;;;;;;;;;;;;;;;1.13;73.04;98900.88;2180934;82;20230;-72
2021/05/04 03:23:00;;;;;;;;;;;;;;;1.16;72.91;98892.22;2181352;82;20162;-73
2021/05/04 03:26:02;;;;;;;;;;;;;;;1.13;72.75;98889.26;2181034;82;20504;-73
2021/05/04 03:29:04;;;;;;;;;;;;;;;1.16;72.82;98888.35;2181014;82;20264;-77
2021/05/04 03:32:06;;;;;;;;;;;;;;;1.19;73.07;98885.27;2180993;82;20519;-74
2021/05/04 03:35:08;;;;;;;;;;;;;;;1.32;73.06;98880.69;2180962;82;20225;-73
2021/05/04 03:38:10;;;;;;;;;;;;;;;1.37;72.68;98878.83;2180974;82;20417;-74
2021/05/04 03:41:12;;;;;;;;;;;;;;;1.41;72.73;98882.63;2181004;82;20229;-73
2021/05/04 03:44:14;;;;;;;;;;;;;;;1.55;72.50;98883.16;2180962;82;20420;-74
2021/05/04 03:47:16;;;;;;;;;;;;;;;1.77;72.74;98880.93;2180979;82;20440;-75
2021/05/04 03:50:18;;;;;;;;;;;;;;;1.95;72.39;98874.44;2153162;82;20217;-77
2021/05/04 03:53:20;;;;;;;;;;;;;;;2.06;72.41;98873.72;2181015;82;20524;-77
2021/05/04 03:56:22;;;;;;;;;;;;;;;2.26;72.29;98874.95;2180984;82;20244;-77
2021/05/04 03:59:24;;;;;;;;;;;;;;;2.45;72.11;98873.17;2181119;82;20558;-75
2021/05/04 04:02:26;;;;;;;;;;;;;;;2.72;72.09;98874.16;2180933;82;20138;-74
2021/05/04 04:05:28;;;;;;;;;;;;;;;3.03;71.57;98866.77;2181083;82;20504;-74
2021/05/04 04:08:30;;;;;;;;;;;;;;;3.27;71.21;98862.59;2176175;81;20269;-74
2021/05/04 04:11:33;;;;;;;;;;;;;;;3.59;71.01;98867.22;2163671;82;20230;-75
2021/05/04 04:14:35;;;;;;;;;;;;;;;3.83;70.44;98857.80;2163495;82;20169;-75
2021/05/04 04:17:37;;;;;;;;;;;;;;;4.13;70.04;98857.67;2163548;82;20126;-75
2021/05/04 04:20:39;;;;;;;;;;;;;;;4.24;69.31;98864.66;2163533;82;20606;-75
2021/05/04 04:23:41;;;;;;;;;;;;;;;4.41;69.50;98864.06;2163594;82;20428;-75
2021/05/04 04:26:43;;;;;;;;;;;;;;;4.57;69.07;98860.91;2163883;82;20230;-76
2021/05/04 04:29:45;;;;;;;;;;;;;;;4.66;68.21;98859.29;2163608;82;20500;-76
2021/05/04 04:32:47;;;;;;;;;;;;;;;4.76;67.91;98856.75;2163471;82;20270;-76
2021/05/04 04:35:49;;;;;;;;;;;;;;;4.95;68.15;98855.60;2163998;82;20245;-76
2021/05/04 04:38:51;;;;;;;;;;;;;;;5.15;67.88;98855.31;2163522;82;20157;-76
2021/05/04 04:41:53;;;;;;;;;;;;;;;5.30;67.56;98852.56;2163855;82;20241;-76
2021/05/04 04:44:54;;;;;;;;;;;;;;;5.48;67.60;98847.94;2163600;82;20599;-75
2021/05/04 04:47:56;;;;;;;;;;;;;;;5.71;66.82;98842.27;2163436;82;20147;-76
2021/05/04 04:50:58;;;;;;;;;;;;;;;5.89;66.31;98841.52;2163979;82;20277;-76
2021/05/04 04:54:00;;;;;;;;;;;;;;;6.07;66.36;98842.52;2142430;82;20218;-76
2021/05/04 04:57:02;;;;;;;;;;;;;;;6.28;65.47;98845.13;2163519;82;20171;-76
2021/05/04 05:00:04;;;;;;;;;;;;;;;6.54;65.73;98850.97;2163431;82;20174;-76
2021/05/04 05:03:06;;;;;;;;;;;;;;;6.78;64.83;98842.95;2163470;82;20254;-76
2021/05/04 05:06:08;;;;;;;;;;;;;;;6.92;63.70;98841.44;2163514;82;20146;-76
2021/05/04 05:09:10;;;;;;;;;;;;;;;7.11;63.73;98842.72;2163444;81;20249;-76
2021/05/04 05:12:12;;;;;;;;;;;;;;;7.31;63.04;98839.62;2163468;82;20182;-76
2021/05/04 05:15:14;;;;;;;;;;;;;;;7.57;63.24;98834.92;2163427;82;20143;-76
2021/05/04 05:18:16;;;;;;;;;;;;;;;7.90;62.94;98834.18;2163494;82;20139;-76
2021/05/04 05:21:18;;;;;;;;;;;;;;;8.15;61.54;98826.80;2163559;82;20505;-76
2021/05/04 05:24:20;;;;;;;;;;;;;;;8.32;60.81;98819.88;2163497;82;20166;-76
2021/05/04 05:27:22;;;;;;;;;;;;;;;8.57;61.76;98816.01;2142637;82;20226;-76
2021/05/04 05:30:24;;;;;;;;;;;;;;;8.82;61.17;98819.45;2163461;82;20146;-76
2021/05/04 05:33:26;;;;;;;;;;;;;;;9.06;60.61;98818.58;2163451;82;20234;-76
2021/05/04 05:36:28;;;;;;;;;;;;;;;9.26;60.46;98812.72;2163823;82;20229;-76
2021/05/04 05:39:30;;;;;;;;;;;;;;;9.41;59.46;98811.01;2163453;82;20135;-76
2021/05/04 05:42:32;;;;;;;;;;;;;;;9.43;56.90;98804.76;2163590;82;20241;-76
2021/05/04 05:45:33;;;;;;;;;;;;;;;9.48;58.14;98805.36;2163638;82;20135;-76
2021/05/04 05:48:35;;;;;;;;;;;;;;;9.62;57.25;98804.55;2163645;82;20500;-76
2021/05/04 05:51:37;;;;;;;;;;;;;;;9.80;56.45;98800.52;2142756;82;20146;-76
2021/05/04 05:54:40;;;;;;;;;;;;;;;9.94;56.50;98804.48;2163717;82;20130;-76
2021/05/04 05:57:41;;;;;;;;;;;;;;;10.21;56.98;98795.45;2163672;82;20226;-76
2021/05/04 06:00:44;;;;;;;;;;;;;;;10.54;57.16;98789.57;2163633;82;20515;-76
2021/05/04 06:03:45;;;;;;;;;;;;;;;10.88;55.56;98779.62;2142576;82;20162;-76
2021/05/04 06:06:48;;;;;;;;;;;;;;;11.12;55.75;98775.05;2163784;82;20504;-76
2021/05/04 06:09:50;;;;;;;;;;;;;;;11.31;54.44;98766.37;2173032;82;20130;-76
2021/05/04 06:12:52;;;;;;;;;;;;;;;11.60;55.61;98758.36;2180982;82;20228;-76
2021/05/04 06:15:55;;;;;;;;;;;;;;;11.88;53.46;98751.25;2181190;82;20483;-76
2021/05/04 06:18:57;;;;;;;;;;;;;;;12.03;53.62;98754.67;2181434;82;20142;-76
2021/05/04 06:21:59;;;;;;;;;;;;;;;12.13;53.71;98754.41;2181031;82;20249;-75
2021/05/04 06:25:01;;;;;;;;;;;;;;;12.37;52.76;98746.62;2181278;82;20412;-76
2021/05/04 06:28:06;;;;;;;;;;;;;;;12.48;49.78;98744.53;2181066;82;20134;-76
2021/05/04 06:31:09;;;;;;;;;;;;;;;12.60;52.81;98737.59;2181182;82;20279;-77
2021/05/04 06:34:13;;;;;;;;;;;;;;;12.91;52.91;98736.22;2181240;82;20234;-76
2021/05/04 06:37:15;;;;;;;;;;;;;;;13.15;51.47;98733.60;2181048;82;20190;-76
2021/05/04 06:40:17;;;;;;;;;;;;;;;13.28;50.73;98721.69;2181154;82;20229;-75
2021/05/04 06:43:19;;;;;;;;;;;;;;;13.25;50.58;98718.45;2181504;82;20141;-76
2021/05/04 06:46:21;;;;;;;;;;;;;;;13.40;51.02;98708.59;2181312;82;20122;-76
2021/05/04 06:49:23;;;;;;;;;;;;;;;13.41;47.48;98701.06;2181046;82;20222;-76
2021/05/04 06:52:25;;;;;;;;;;;;;;;13.43;45.93;98700.00;2180972;82;20260;-76
2021/05/04 06:55:27;;;;;;;;;;;;;;;13.60;48.42;98694.76;2181262;82;20228;-76
2021/05/04 06:58:29;;;;;;;;;;;;;;;13.80;46.78;98684.50;2181015;82;20133;-76
2021/05/04 07:01:31;;;;;;;;;;;;;;;13.96;49.08;98681.03;2180956;82;20237;-76
2021/05/04 07:04:33;;;;;;;;;;;;;;;14.14;44.58;98675.31;2180970;82;20497;-76
2021/05/04 07:07:35;;;;;;;;;;;;;;;14.20;46.09;98670.38;2180951;82;20185;-76
2021/05/04 07:10:37;;;;;;;;;;;;;;;14.36;43.87;98671.81;2181022;82;20492;-76
2021/05/04 07:13:41;;;;;;;;;;;;;;;14.50;45.36;98672.88;2180961;82;20228;-76
2021/05/04 07:16:44;;;;;;;;;;;;;;;14.79;44.49;98657.84;2181133;82;20257;-76
2021/05/04 07:19:46;;;;;;;;;;;;;;;15.01;44.20;98649.49;2180990;82;20229;-76
2021/05/04 07:22:53;;;;;;;;;;;;;;;14.98;42.35;98640.50;2180971;82;20258;-76
2021/05/04 07:25:53;;;;;;;;;;;;;;;14.92;41.63;98646.30;2180542;82;20240;-76
2021/05/04 07:28:55;;;;;;;;;;;;;;;14.80;42.20;98637.59;2181009;82;20169;-76
2021/05/04 07:31:57;;;;;;;;;;;;;;;14.86;42.34;98637.91;2181000;82;20240;-76
2021/05/04 07:34:59;;;;;;;;;;;;;;;15.10;43.57;98628.08;2180934;82;20241;-76
2021/05/04 07:38:01;;;;;;;;;;;;;;;15.24;42.86;98625.98;2180994;82;20436;-76
2021/05/04 07:41:05;;;;;;;;;;;;;;;15.44;42.54;98617.34;2180951;82;20233;-76
2021/05/04 07:44:07;;;;;;;;;;;;;;;15.74;41.77;98610.75;2181085;82;20142;-76
2021/05/04 07:47:10;;;;;;;;;;;;;;;15.48;39.51;98604.23;2181464;82;20141;-76
2021/05/04 07:50:12;;;;;;;;;;;;;;;15.36;42.38;98603.47;2181026;82;20221;-76
2021/05/04 07:53:14;;;;;;;;;;;;;;;15.57;41.71;98602.11;2180962;82;20297;-76
2021/05/04 07:56:17;;;;;;;;;;;;;;;15.55;39.59;98598.28;2181084;82;20150;-76
2021/05/04 07:59:19;;;;;;;;;;;;;;;15.86;40.78;98589.08;2180956;82;20180;-76
2021/05/04 08:02:21;;;;;;;;;;;;;;;16.10;40.02;98582.14;2180872;82;20229;-76
2021/05/04 08:05:23;;;;;;;;;;;;;;;16.09;39.54;98574.31;2180920;82;20268;-76
2021/05/04 08:08:25;;;;;;;;;;;;;;;15.88;38.81;98575.22;2181048;82;20578;-76
2021/05/04 08:11:27;;;;;;;;;;;;;;;15.80;37.59;98549.92;2165531;82;20245;-76
2021/05/04 08:14:29;;;;;;;;;;;;;;;15.67;39.59;98571.77;2163598;82;20133;-75
2021/05/04 08:17:32;;;;;;;;;;;;;;;15.52;40.65;98569.97;2163635;82;20250;-76
2021/05/04 08:20:36;;;;;;;;;;;;;;;15.33;40.45;98567.56;2163487;82;20154;-76
2021/05/04 08:23:38;;;;;;;;;;;;;;;15.17;40.16;98569.35;2163504;82;20249;-76
2021/05/04 08:26:40;;;;;;;;;;;;;;;14.85;40.41;98562.28;2163538;82;20135;-77
2021/05/04 08:29:42;;;;;;;;;;;;;;;14.41;40.76;98566.77;2163598;82;20123;-78
2021/05/04 08:32:44;;;;;;;;;;;;;;;14.06;41.09;98571.73;2163526;82;20272;-77
2021/05/04 08:35:46;;;;;;;;;;;;;;;13.71;41.33;98574.53;2163498;82;20166;-77
2021/05/04 08:38:48;;;;;;;;;;;;;;;13.66;42.37;98571.77;2163500;82;20163;-76
2021/05/04 08:41:50;;;;;;;;;;;;;;;13.77;42.61;98567.45;2163565;82;20484;-78
2021/05/04 08:44:52;;;;;;;;;;;;;;;13.93;41.76;98565.77;2163483;82;20162;-77
2021/05/04 08:47:54;;;;;;;;;;;;;;;14.01;41.30;98554.96;2163492;82;20178;-78
2021/05/04 08:50:56;;;;;;;;;;;;;;;14.11;41.60;98545.84;2163492;82;20133;-77
2021/05/04 08:53:58;;;;;;;;;;;;;;;14.48;40.76;98536.73;2163481;82;20225;-77
2021/05/04 08:57:00;;;;;;;;;;;;;;;15.16;41.64;98529.86;2163473;82;20150;-76
2021/05/04 09:00:02;;;;;;;;;;;;;;;15.80;39.21;98512.91;2163562;82;20504;-76
2021/05/04 09:03:06;;;;;;;;;;;;;;;16.19;39.20;98504.23;2163459;82;20159;-77
2021/05/04 09:06:12;;;;;;;;;;;;;;;16.58;37.87;98497.66;2163837;82;20167;-76
2021/05/04 09:09:17;;;;;;;;;;;;;;;16.97;39.02;98494.98;2163736;81;20142;-76
2021/05/04 09:12:18;;;;;;;;;;;;;;;17.45;38.53;98490.52;2180900;82;20232;-76
2021/05/04 09:15:20;;;;;;;;;;;;;;;17.11;37.88;98494.54;2181035;82;20416;-76
2021/05/04 09:18:22;;;;;;;;;;;;;;;16.68;38.25;98484.39;2181109;82;20229;-76
2021/05/04 09:21:24;;;;;;;;;;;;;;;16.17;38.57;98488.98;2181097;82;20288;-77
2021/05/04 09:24:26;;;;;;;;;;;;;;;15.89;39.92;98480.88;2181517;82;20296;-76
2021/05/04 09:27:29;;;;;;;;;;;;;;;15.74;39.35;98479.05;2181235;82;20253;-76
2021/05/04 09:30:31;;;;;;;;;;;;;;;15.58;40.88;98477.73;2181143;82;20237;-77
2021/05/04 09:33:33;;;;;;;;;;;;;;;15.33;40.59;98476.87;2181083;82;20225;-76
2021/05/04 09:36:35;;;;;;;;;;;;;;;15.30;41.03;98463.93;2181334;82;20452;-76
2021/05/04 09:39:39;;;;;;;;;;;;;;;15.31;40.58;98467.76;2181148;82;20225;-76
2021/05/04 09:42:41;;;;;;;;;;;;;;;15.29;40.61;98460.95;2181450;82;20137;-77
2021/05/04 09:45:43;;;;;;;;;;;;;;;15.37;40.18;98459.33;2181092;82;20421;-76
2021/05/04 09:48:46;;;;;;;;;;;;;;;15.66;41.15;98450.66;2181109;82;20229;-76
2021/05/04 09:51:49;;;;;;;;;;;;;;;16.05;40.53;98440.67;2181067;82;20253;-76
2021/05/04 09:54:51;;;;;;;;;;;;;;;16.10;39.75;98446.36;2181199;82;20500;-76
2021/05/04 09:57:53;;;;;;;;;;;;;;;15.96;39.60;98436.19;2181089;82;20225;-76
2021/05/04 10:00:55;;;;;;;;;;;;;;;15.81;40.62;98430.47;2181394;82;20272;-77
2021/05/04 10:03:57;;;;;;;;;;;;;;;15.68;40.57;98436.80;2181043;82;20233;-76
2021/05/04 10:06:59;;;;;;;;;;;;;;;15.61;40.28;98429.56;2153302;82;20221;-76
2021/05/04 10:10:01;;;;;;;;;;;;;;;15.59;39.65;98421.27;2181008;81;20229;-76
2021/05/04 10:13:03;;;;;;;;;;;;;;;15.78;40.43;98419.64;2181036;82;20225;-76
2021/05/04 10:16:05;;;;;;;;;;;;;;;16.17;40.67;98404.33;2181042;82;20269;-76
2021/05/04 10:19:07;;;;;;;;;;;;;;;16.61;38.98;98393.62;2181029;82;20241;-76
2021/05/04 10:22:09;;;;;;;;;;;;;;;17.13;40.27;98377.80;2181017;82;20280;-76
2021/05/04 10:25:11;;;;;;;;;;;;;;;17.43;39.04;98371.88;2181044;82;20225;-76
2021/05/04 10:28:13;;;;;;;;;;;;;;;17.59;38.40;98353.98;2181104;82;20500;-76
2021/05/04 10:31:17;;;;;;;;;;;;;;;17.71;37.61;98351.94;2153470;82;20489;-76
2021/05/04 10:34:19;;;;;;;;;;;;;;;17.91;38.62;98345.52;2181119;82;20529;-76
2021/05/04 10:37:21;;;;;;;;;;;;;;;18.08;39.76;98344.36;2181282;82;20233;-76
2021/05/04 10:40:23;;;;;;;;;;;;;;;18.19;38.86;98330.84;2181122;82;20146;-74
2021/05/04 10:43:25;;;;;;;;;;;;;;;18.15;37.64;98321.52;2180998;82;20229;-73
2021/05/04 10:46:27;;;;;;;;;;;;;;;17.92;38.08;98326.48;2181070;82;20224;-74
2021/05/04 10:49:29;;;;;;;;;;;;;;;18.09;37.64;98312.86;2181124;82;20476;-74
2021/05/04 10:52:31;;;;;;;;;;;;;;;18.20;36.95;98312.58;2180995;82;20232;-74
2021/05/04 10:55:33;;;;;;;;;;;;;;;18.35;38.53;98307.06;2181370;82;20153;-74
2021/05/04 10:58:35;;;;;;;;;;;;;;;18.39;37.04;98293.47;2181142;82;20182;-74
2021/05/04 11:01:37;;;;;;;;;;;;;;;18.27;37.58;98302.19;2181014;82;20234;-74
2021/05/04 11:04:39;;;;;;;;;;;;;;;18.38;37.72;98294.48;2181349;82;20138;-73
2021/05/04 11:07:41;;;;;;;;;;;;;;;18.40;37.45;98291.98;2181050;82;20224;-74
2021/05/04 11:10:44;;;;;;;;;;;;;;;18.56;35.94;98282.45;2181024;81;20500;-74
2021/05/04 11:13:46;;;;;;;;;;;;;;;18.34;35.69;98271.37;2181002;82;20133;-74
2021/05/04 11:16:49;;;;;;;;;;;;;;;18.55;33.96;98260.38;2180965;82;20229;-74
2021/05/04 11:19:51;;;;;;;;;;;;;;;18.72;34.19;98257.31;2181137;82;20296;-73
2021/05/04 11:22:52;;;;;;;;;;;;;;;18.72;34.72;98259.97;2181038;82;20511;-73
2021/05/04 11:25:54;;;;;;;;;;;;;;;18.75;34.61;98249.02;2181351;82;20169;-73
2021/05/04 11:28:56;;;;;;;;;;;;;;;18.59;33.76;98252.92;2181251;82;20269;-74
2021/05/04 11:31:58;;;;;;;;;;;;;;;18.48;35.02;98240.26;2180962;82;20245;-74
2021/05/04 11:35:01;;;;;;;;;;;;;;;18.18;35.23;98253.03;2181125;82;20233;-74
2021/05/04 11:38:03;;;;;;;;;;;;;;;17.94;36.09;98237.80;2181113;82;20524;-73
2021/05/04 11:41:05;;;;;;;;;;;;;;;17.58;36.16;98232.48;2180951;82;20257;-74
2021/05/04 11:44:07;;;;;;;;;;;;;;;17.83;35.35;98230.05;2180909;82;20122;-73
2021/05/04 11:47:09;;;;;;;;;;;;;;;17.82;35.36;98225.72;2180989;82;20292;-74
2021/05/04 11:50:11;;;;;;;;;;;;;;;17.83;35.38;98216.79;2180973;82;20550;-74
2021/05/04 11:53:14;;;;;;;;;;;;;;;17.70;35.14;98209.70;2181342;82;20146;-74
2021/05/04 11:56:16;;;;;;;;;;;;;;;17.56;35.88;98213.76;2180976;82;20531;-74
2021/05/04 11:59:18;;;;;;;;;;;;;;;17.52;36.34;98209.23;2180963;82;20138;-74
2021/05/04 12:02:20;;;;;;;;;;;;;;;17.72;36.79;98201.94;2153637;82;20244;-74
2021/05/04 12:05:22;;;;;;;;;;;;;;;17.97;37.00;98191.53;2153131;82;20237;-74
2021/05/04 12:08:24;;;;;;;;;;;;;;;18.20;36.20;98183.05;2181227;82;20161;-74
2021/05/04 12:11:26;;;;;;;;;;;;;;;18.46;35.22;98173.70;2171706;82;20226;-73
2021/05/04 12:14:28;;;;;;;;;;;;;;;18.73;35.14;98166.50;2163599;82;20512;-73
2021/05/04 12:17:30;;;;;;;;;;;;;;;18.96;36.20;98166.23;2163519;82;20233;-74
2021/05/04 12:20:32;;;;;;;;;;;;;;;19.27;35.64;98158.16;2163495;82;20229;-74
2021/05/04 12:23:34;;;;;;;;;;;;;;;19.67;35.37;98145.34;2163509;82;20123;-74
2021/05/04 12:26:39;;;;;;;;;;;;;;;19.95;35.42;98141.50;2163531;82;20159;-74
2021/05/04 12:29:40;;;;;;;;;;;;;;;20.16;33.12;98129.78;2163503;82;20142;-74
2021/05/04 12:32:42;;;;;;;;;;;;;;;20.11;33.91;98124.13;2163505;82;20146;-74
2021/05/04 12:35:51;;;;;;;;;;;;;;;20.14;33.09;98124.30;2163520;82;20131;-73
2021/05/04 12:38:51;;;;;;;;;;;;;;;20.34;33.78;98118.06;2162946;82;20127;-73
2021/05/04 12:41:53;;;;;;;;;;;;;;;20.67;33.94;98104.61;2163492;82;20174;-73
2021/05/04 12:44:56;;;;;;;;;;;;;;;20.92;33.20;98098.62;2163853;82;20142;-73
2021/05/04 12:47:58;;;;;;;;;;;;;;;20.92;32.44;98094.12;2142451;82;20241;-73
2021/05/04 12:51:01;;;;;;;;;;;;;;;20.96;32.22;98090.61;2163468;82;20249;-74
2021/05/04 12:54:03;;;;;;;;;;;;;;;21.11;32.76;98082.13;2163495;82;20138;-73
2021/05/04 12:57:05;;;;;;;;;;;;;;;21.18;32.54;98058.77;2163576;82;20445;-74
2021/05/04 13:00:07;;;;;;;;;;;;;;;21.19;33.23;98066.59;2163597;82;20261;-73
2021/05/04 13:03:12;;;;;;;;;;;;;;;21.09;32.62;98069.50;2163446;82;20463;-73
2021/05/04 13:06:18;;;;;;;;;;;;;;;21.27;32.97;98054.49;2163310;82;20150;-73
2021/05/04 13:09:29;;;;;;;;;;;;;;;21.35;31.80;98044.76;2163375;81;20147;-74
2021/05/04 13:12:40;;;;;;;;;;;;;;;21.37;31.75;98034.23;2176954;82;20233;-74
2021/05/04 13:16:12;;;;;;;;;;;;;;;21.51;30.91;98019.78;2180238;82;20252;-75
2021/05/04 13:19:32;;;;;;;;;;;;;;;21.44;31.85;98019.68;2176840;82;20228;-74
2021/05/04 13:32:28;;;;;;;;;;;;;;;19.75;28.78;98007.47;2181012;82;20421;-74
2021/05/04 13:35:34;;;;;;;;;;;;;;;19.56;26.79;98014.03;2181141;82;20245;-73
2021/05/04 13:38:43;;;;;;;;;;;;;;;19.47;28.26;98004.43;2180823;81;20284;-74
2021/05/04 13:48:41;;;;;;;;;;;;;;;19.80;28.54;97987.06;2153173;82;20229;-73
2021/05/04 13:51:43;;;;;;;;;;;;;;;19.74;28.36;97969.92;2180858;82;20225;-74
2021/05/04 13:54:46;;;;;;;;;;;;;;;19.94;29.24;97962.38;2181116;82;20166;-73
2021/05/04 13:57:52;;;;;;;;;;;;;;;20.18;27.58;97957.90;2180887;82;20233;-74
2021/05/04 14:00:56;;;;;;;;;;;;;;;20.28;29.70;97957.16;2180482;82;20547;-73
2021/05/04 14:04:10;;;;;;;;;;;;;;;20.46;27.91;97961.36;2180913;82;20225;-74
2021/05/04 14:07:29;;;;;;;;;;;;;;;20.50;27.24;97948.02;2179369;82;20221;-74
2021/05/04 14:27:08;;;;;;;;;;;;;;;20.68;27.83;97929.92;2181273;82;20289;-74
2021/05/04 14:30:11;;;;;;;;;;;;;;;20.78;27.04;97917.69;2181023;82;20256;-74
2021/05/04 14:33:12;;;;;;;;;;;;;;;20.74;26.37;97927.05;2181029;82;20149;-74
2021/05/04 14:36:51;;;;;;;;;;;;;;;20.20;25.54;97939.91;2181064;82;20257;-73
2021/05/04 14:39:52;;;;;;;;;;;;;;;20.19;27.17;97918.30;2179070;82;20134;-73
2021/05/04 14:43:24;;;;;;;;;;;;;;;20.05;27.62;97923.36;2180880;82;20229;-74
2021/05/04 14:46:25;;;;;;;;;;;;;;;20.11;26.46;97914.36;2177236;82;20146;-73
2021/05/04 14:56:16;;;;;;;;;;;;;;;20.22;26.84;97904.12;2181010;82;20229;-73
2021/05/04 14:59:13;;;;;;;;;;;;;;;20.20;27.28;97907.48;2179959;82;20137;-74
2021/05/04 15:02:15;;;;;;;;;;;;;;;20.35;27.51;97898.20;2180979;82;20177;-74
2021/05/04 15:05:19;;;;;;;;;;;;;;;20.42;27.99;97889.81;2181134;82;20503;-74
2021/05/04 15:08:21;;;;;;;;;;;;;;;20.91;27.50;97875.75;2181062;82;20171;-73
2021/05/04 15:11:23;;;;;;;;;;;;;;;21.70;26.37;97875.67;2176515;81;20429;-73
2021/05/04 15:14:28;;;;;;;;;;;;;;;22.52;24.89;97859.73;2163562;82;20154;-73
2021/05/04 15:17:33;;;;;;;;;;;;;;;22.37;25.79;97868.33;2163575;81;20143;-73
2021/05/04 15:21:03;;;;;;;;;;;;;;;22.69;24.42;97849.58;2163325;82;20158;-73
2021/05/04 15:23:49;;;;;;;;;;;;;;;23.06;24.60;97854.23;2160945;82;20134;-73
2021/05/04 15:26:51;;;;;;;;;;;;;;;22.10;25.37;97865.41;2163562;82;20154;-73
2021/05/04 15:29:53;;;;;;;;;;;;;;;21.56;26.38;97851.48;2163810;82;20152;-73
2021/05/04 15:32:59;;;;;;;;;;;;;;;22.34;26.64;97852.20;2163562;82;20182;-73
2021/05/04 15:36:01;;;;;;;;;;;;;;;23.21;25.61;97845.29;2163533;82;20146;-73
2021/05/04 15:39:06;;;;;;;;;;;;;;;23.80;23.37;97823.23;2163581;82;20123;-73
2021/05/04 15:42:07;;;;;;;;;;;;;;;22.18;24.96;97841.23;2163502;82;20229;-73
2021/05/04 15:45:10;;;;;;;;;;;;;;;21.85;26.32;97837.77;2163573;82;20269;-75
2021/05/04 15:48:18;;;;;;;;;;;;;;;22.27;23.63;97837.94;2142802;82;20242;-73
2021/05/04 15:54:59;;;;;;;;;;;;;;;22.74;24.84;97822.27;2119083;82;20504;-73
2021/05/04 16:01:57;;;;;;;;;;;;;;;20.88;27.06;97820.16;2163596;82;20509;-73
2021/05/04 16:08:26;;;;;;;;;;;;;;;19.43;28.53;97818.31;2102259;82;20135;-74
2021/05/04 16:11:29;;;;;;;;;;;;;;;19.18;29.04;97809.95;2167007;81;20481;-74
2021/05/04 16:14:30;;;;;;;;;;;;;;;18.96;30.08;97813.36;2181099;82;20492;-74
2021/05/04 16:17:33;;;;;;;;;;;;;;;18.75;30.12;97809.90;2153337;82;20245;-73
2021/05/04 16:20:53;;;;;;;;;;;;;;;18.53;30.88;97814.93;2180924;82;20186;-74
2021/05/04 16:23:52;;;;;;;;;;;;;;;18.34;31.66;97817.45;2179695;82;20225;-74
2021/05/04 16:27:06;;;;;;;;;;;;;;;18.15;31.86;97813.33;2181260;81;20229;-74
2021/05/04 16:30:07;;;;;;;;;;;;;;;17.96;32.45;97810.02;2180556;82;20189;-74
2021/05/04 16:33:09;;;;;;;;;;;;;;;17.77;32.92;97820.89;2180944;82;20287;-74
2021/05/04 16:36:11;;;;;;;;;;;;;;;17.65;33.35;97810.60;2181078;82;20221;-74
2021/05/04 16:39:13;;;;;;;;;;;;;;;17.54;33.34;97804.79;2180936;82;20133;-74
2021/05/04 16:42:16;;;;;;;;;;;;;;;17.45;33.86;97801.30;2180915;82;20264;-74
2021/05/04 16:45:19;;;;;;;;;;;;;;;17.31;33.94;97798.29;2153278;82;20146;-74
2021/05/04 16:48:22;;;;;;;;;;;;;;;17.20;34.26;97799.09;2180936;82;20232;-74